createdAt,value
2018-08-25T00:00:50.909Z,38.10
2018-08-25T00:02:08.178Z,38.60
2018-08-25T00:03:25.428Z,38.50
2018-08-25T00:04:42.799Z,38.60
2018-08-25T00:05:59.933Z,38.60
2018-08-25T00:07:17.208Z,38.50
2018-08-25T00:08:34.845Z,38.60
2018-08-25T00:09:51.924Z,38.40
2018-08-25T00:11:09.758Z,38.70
2018-08-25T00:12:26.909Z,38.60
2018-08-25T00:13:43.965Z,38.60
2018-08-25T00:15:01.063Z,38.70
2018-08-25T00:16:17.860Z,38.30
2018-08-25T00:17:34.869Z,39.30
2018-08-25T00:18:52.092Z,38.60
2018-08-25T00:20:09.385Z,39.30
2018-08-25T00:21:25.945Z,38.60
2018-08-25T00:22:43.013Z,38.30
2018-08-25T00:23:59.576Z,38.90
2018-08-25T00:25:16.763Z,38.10
2018-08-25T00:26:35.278Z,38.20
2018-08-25T00:27:52.154Z,38.10
2018-08-25T00:29:09.278Z,38.30
2018-08-25T00:30:31.313Z,38.20
2018-08-25T00:31:51.672Z,38.20
2018-08-25T00:33:08.496Z,38.90
2018-08-25T00:34:30.712Z,38.20
2018-08-25T00:35:55.830Z,39.00
2018-08-25T00:37:15.553Z,38.30
2018-08-25T00:38:33.486Z,38.20
2018-08-25T00:39:51.434Z,38.00
2018-08-25T00:41:08.594Z,38.10
2018-08-25T00:42:25.479Z,38.20
2018-08-25T00:43:42.628Z,38.60
2018-08-25T00:45:03.554Z,38.90
2018-08-25T00:46:22.513Z,38.20
2018-08-25T00:47:39.816Z,38.40
2018-08-25T00:48:56.685Z,38.40
2018-08-25T00:50:13.490Z,38.20
2018-08-25T00:51:38.360Z,38.40
2018-08-25T00:52:55.728Z,38.40
2018-08-25T00:54:12.732Z,38.40
2018-08-25T00:55:29.523Z,38.10
2018-08-25T00:56:48.339Z,38.20
2018-08-25T00:58:06.369Z,38.40
2018-08-25T00:59:23.102Z,38.10
2018-08-25T01:00:40.948Z,38.20
2018-08-25T01:01:59.837Z,38.30
2018-08-25T01:03:17.380Z,38.20
2018-08-25T01:04:33.985Z,38.30
2018-08-25T01:05:50.986Z,38.40
2018-08-25T01:07:08.553Z,39.30
2018-08-25T01:08:25.899Z,38.80
2018-08-25T01:09:43.289Z,38.60
2018-08-25T01:11:00.493Z,38.90
2018-08-25T01:12:17.408Z,39.20
2018-08-25T01:13:37.080Z,39.00
2018-08-25T01:14:54.662Z,39.00
2018-08-25T01:16:11.749Z,39.20
2018-08-25T01:17:29.259Z,39.70
2018-08-25T01:18:46.005Z,39.30
2018-08-25T01:20:03.142Z,39.40
2018-08-25T01:21:20.320Z,39.30
2018-08-25T01:22:38.902Z,39.40
2018-08-25T01:23:56.328Z,39.30
2018-08-25T01:25:23.377Z,39.50
2018-08-25T01:26:40.350Z,40.10
2018-08-25T01:27:57.418Z,39.70
2018-08-25T01:29:14.500Z,39.70
2018-08-25T01:30:31.752Z,39.60
2018-08-25T01:31:48.608Z,39.70
2018-08-25T01:33:05.618Z,39.70
2018-08-25T01:34:22.775Z,39.70
2018-08-25T01:35:40.592Z,39.70
2018-08-25T01:36:57.862Z,39.70
2018-08-25T01:38:15.264Z,39.70
2018-08-25T01:39:33.753Z,39.80
2018-08-25T01:40:50.606Z,39.80
2018-08-25T01:42:07.372Z,39.80
2018-08-25T01:43:24.922Z,39.80
2018-08-25T01:44:42.240Z,39.90
2018-08-25T01:45:59.154Z,39.80
2018-08-25T01:47:17.620Z,39.80
2018-08-25T01:48:34.877Z,40.60
2018-08-25T01:49:52.209Z,39.90
2018-08-25T01:51:10.735Z,39.90
2018-08-25T01:52:28.177Z,40.00
2018-08-25T01:53:45.122Z,40.00
2018-08-25T01:55:01.802Z,40.00
2018-08-25T01:56:18.344Z,40.00
2018-08-25T01:57:36.144Z,39.90
2018-08-25T01:58:53.145Z,39.90
2018-08-25T02:00:10.006Z,39.90
2018-08-25T02:01:26.979Z,39.90
2018-08-25T02:02:43.788Z,39.70
2018-08-25T02:04:01.578Z,39.50
2018-08-25T02:05:18.408Z,39.60
2018-08-25T02:06:35.145Z,39.60
2018-08-25T02:07:52.493Z,39.40
2018-08-25T02:09:12.795Z,39.10
2018-08-25T02:10:30.421Z,39.20
2018-08-25T02:11:47.104Z,39.20
2018-08-25T02:13:03.958Z,39.10
2018-08-25T02:14:21.939Z,39.30
2018-08-25T02:15:38.894Z,39.50
2018-08-25T02:16:55.551Z,39.60
2018-08-25T02:18:12.860Z,39.60
2018-08-25T02:19:32.443Z,39.60
2018-08-25T02:20:50.450Z,39.60
2018-08-25T02:23:29.168Z,39.60
2018-08-25T02:24:46.279Z,39.60
2018-08-25T02:26:03.195Z,39.50
2018-08-25T02:27:20.503Z,39.80
2018-08-25T02:28:37.155Z,39.40
2018-08-25T02:29:54.892Z,39.20
2018-08-25T02:31:12.760Z,39.40
2018-08-25T02:32:30.875Z,39.50
2018-08-25T02:33:48.386Z,39.30
2018-08-25T02:35:05.237Z,39.40
2018-08-25T02:36:22.069Z,39.40
2018-08-25T02:37:38.985Z,39.20
2018-08-25T02:38:56.113Z,39.40
2018-08-25T02:40:13.664Z,39.20
2018-08-25T02:41:31.373Z,39.20
2018-08-25T02:42:48.397Z,39.00
2018-08-25T02:44:05.505Z,39.10
2018-08-25T02:45:24.613Z,39.30
2018-08-25T02:46:41.329Z,39.80
2018-08-25T02:47:57.918Z,39.10
2018-08-25T02:49:14.896Z,38.70
2018-08-25T02:50:32.207Z,39.00
2018-08-25T02:51:49.462Z,38.90
2018-08-25T02:53:06.157Z,38.90
2018-08-25T02:54:23.066Z,39.70
2018-08-25T02:55:39.551Z,39.20
2018-08-25T02:56:56.426Z,39.00
2018-08-25T02:58:13.163Z,39.50
2018-08-25T02:59:29.730Z,39.30
2018-08-25T03:00:46.819Z,39.10
2018-08-25T03:02:03.640Z,38.90
2018-08-25T03:03:20.947Z,38.90
2018-08-25T03:04:38.412Z,38.80
2018-08-25T03:05:55.873Z,39.80
2018-08-25T03:07:12.884Z,39.60
2018-08-25T03:08:30.149Z,39.00
2018-08-25T03:09:47.425Z,39.10
2018-08-25T03:11:04.206Z,39.20
2018-08-25T03:12:20.703Z,39.10
2018-08-25T03:13:37.825Z,39.10
2018-08-25T03:14:54.714Z,39.20
2018-08-25T03:16:12.144Z,39.20
2018-08-25T03:17:29.628Z,39.90
2018-08-25T03:18:46.825Z,39.10
2018-08-25T03:20:03.505Z,39.20
2018-08-25T03:21:20.299Z,39.00
2018-08-25T03:22:37.045Z,39.20
2018-08-25T03:23:54.231Z,38.60
2018-08-25T03:25:10.884Z,39.40
2018-08-25T03:26:27.799Z,39.20
2018-08-25T03:27:44.781Z,39.20
2018-08-25T03:29:01.611Z,39.30
2018-08-25T03:30:19.093Z,39.50
2018-08-25T03:31:36.616Z,39.60
2018-08-25T03:32:54.255Z,40.30
2018-08-25T03:34:11.199Z,39.80
2018-08-25T03:35:28.015Z,39.60
2018-08-25T03:36:44.868Z,39.60
2018-08-25T03:38:01.770Z,39.00
2018-08-25T03:39:19.438Z,40.40
2018-08-25T03:40:41.277Z,39.70
2018-08-25T03:41:58.098Z,40.40
2018-08-25T03:43:15.214Z,39.80
2018-08-25T03:44:32.029Z,40.00
2018-08-25T03:45:49.761Z,40.00
2018-08-25T03:47:06.698Z,40.00
2018-08-25T03:48:23.647Z,40.70
2018-08-25T03:49:40.350Z,40.00
2018-08-25T03:50:56.901Z,40.20
2018-08-25T03:52:13.852Z,40.00
2018-08-25T03:53:37.457Z,40.80
2018-08-25T03:54:54.711Z,40.10
2018-08-25T03:56:16.234Z,40.20
2018-08-25T03:57:37.090Z,40.10
2018-08-25T03:58:54.273Z,40.70
2018-08-25T04:00:11.181Z,39.90
2018-08-25T04:01:28.537Z,40.10
2018-08-25T04:02:45.852Z,40.20
2018-08-25T04:04:02.724Z,40.30
2018-08-25T04:05:19.975Z,41.00
2018-08-25T04:06:37.487Z,40.20
2018-08-25T04:07:54.327Z,40.90
2018-08-25T04:09:13.204Z,40.00
2018-08-25T04:10:29.858Z,40.00
2018-08-25T04:11:46.752Z,40.10
2018-08-25T04:13:03.332Z,40.00
2018-08-25T04:14:22.042Z,40.00
2018-08-25T04:15:40.622Z,40.80
2018-08-25T04:16:58.523Z,40.00
2018-08-25T04:18:15.947Z,40.00
2018-08-25T04:19:34.404Z,40.20
2018-08-25T04:20:52.692Z,40.30
2018-08-25T04:22:09.898Z,40.10
2018-08-25T04:23:26.796Z,40.20
2018-08-25T04:24:45.032Z,40.20
2018-08-25T04:26:02.233Z,40.30
2018-08-25T04:27:20.944Z,40.40
2018-08-25T04:28:38.413Z,40.70
2018-08-25T04:29:56.129Z,40.50
2018-08-25T04:31:12.925Z,40.50
2018-08-25T04:32:29.844Z,40.80
2018-08-25T04:33:46.995Z,40.70
2018-08-25T04:35:04.885Z,40.60
2018-08-25T04:36:21.985Z,40.50
2018-08-25T04:37:38.613Z,40.50
2018-08-25T04:38:55.794Z,41.20
2018-08-25T04:40:12.428Z,40.70
2018-08-25T04:41:29.326Z,40.80
2018-08-25T04:42:46.270Z,40.70
2018-08-25T04:44:03.590Z,40.70
2018-08-25T04:45:20.698Z,40.60
2018-08-25T04:46:38.421Z,40.80
2018-08-25T04:47:55.844Z,40.70
2018-08-25T04:49:12.990Z,40.60
2018-08-25T04:50:30.897Z,40.70
2018-08-25T04:51:47.644Z,40.70
2018-08-25T04:53:04.839Z,40.70
2018-08-25T04:54:21.712Z,40.60
2018-08-25T04:55:39.015Z,40.70
2018-08-25T04:56:57.435Z,40.60
2018-08-25T04:58:14.335Z,40.80
2018-08-25T04:59:31.547Z,40.70
2018-08-25T05:00:51.934Z,40.70
2018-08-25T05:02:08.489Z,41.40
2018-08-25T05:03:25.587Z,40.70
2018-08-25T05:04:42.725Z,40.60
2018-08-25T05:05:59.457Z,40.60
2018-08-25T05:07:16.627Z,40.90
2018-08-25T05:08:34.438Z,41.30
2018-08-25T05:09:51.785Z,41.40
2018-08-25T05:11:09.215Z,40.80
2018-08-25T05:12:26.044Z,40.60
2018-08-25T05:13:42.926Z,40.60
2018-08-25T05:14:59.952Z,40.60
2018-08-25T05:16:23.856Z,40.60
2018-08-25T05:17:41.194Z,40.70
2018-08-25T05:18:58.629Z,41.30
2018-08-25T05:20:16.178Z,41.00
2018-08-25T05:21:33.250Z,41.30
2018-08-25T05:22:53.286Z,40.70
2018-08-25T05:24:10.788Z,40.60
2018-08-25T05:25:27.770Z,41.30
2018-08-25T05:28:09.010Z,40.70
2018-08-25T05:29:26.009Z,40.60
2018-08-25T05:30:43.721Z,40.60
2018-08-25T05:32:02.343Z,40.60
2018-08-25T05:33:19.397Z,40.70
2018-08-25T05:34:36.191Z,40.60
2018-08-25T05:35:53.030Z,40.70
2018-08-25T05:37:10.704Z,40.60
2018-08-25T05:38:28.043Z,41.30
2018-08-25T05:39:45.324Z,40.60
2018-08-25T05:41:02.342Z,40.60
2018-08-25T05:42:19.742Z,40.70
2018-08-25T05:43:36.751Z,40.60
2018-08-25T05:44:53.680Z,40.50
2018-08-25T05:46:10.613Z,40.60
2018-08-25T05:47:28.316Z,40.30
2018-08-25T05:48:45.234Z,40.10
2018-08-25T05:50:02.483Z,40.30
2018-08-25T05:51:20.283Z,40.60
2018-08-25T05:52:37.324Z,40.70
2018-08-25T05:53:54.285Z,40.60
2018-08-25T05:55:11.108Z,40.20
2018-08-25T05:56:28.761Z,40.90
2018-08-25T05:59:13.259Z,40.50
2018-08-25T06:00:32.979Z,40.40
2018-08-25T06:01:49.982Z,40.30
2018-08-25T06:03:06.886Z,40.20
2018-08-25T06:04:23.989Z,40.50
2018-08-25T06:05:40.741Z,40.50
2018-08-25T06:06:57.944Z,40.50
2018-08-25T06:08:15.319Z,40.60
2018-08-25T06:09:32.418Z,41.20
2018-08-25T06:10:49.461Z,40.50
2018-08-25T06:12:06.370Z,40.50
2018-08-25T06:13:23.866Z,41.30
2018-08-25T06:14:44.869Z,40.60
2018-08-25T06:16:02.333Z,40.50
2018-08-25T06:17:19.239Z,40.60
2018-08-25T06:18:36.575Z,40.50
2018-08-25T06:19:53.954Z,40.50
2018-08-25T06:21:17.414Z,40.60
2018-08-25T06:22:34.599Z,40.50
2018-08-25T06:23:51.466Z,40.60
2018-08-25T06:25:09.985Z,41.30
2018-08-25T06:26:28.550Z,40.50
2018-08-25T06:27:46.159Z,40.50
2018-08-25T06:29:02.995Z,40.50
2018-08-25T06:30:47.422Z,40.50
2018-08-25T06:32:05.312Z,40.50
2018-08-25T06:33:22.949Z,40.50
2018-08-25T06:34:39.854Z,41.20
2018-08-25T06:35:56.653Z,40.50
2018-08-25T06:37:13.234Z,40.60
2018-08-25T06:38:30.054Z,40.50
2018-08-25T06:39:47.066Z,40.50
2018-08-25T06:41:04.050Z,40.50
2018-08-25T06:42:21.085Z,40.60
2018-08-25T06:43:38.573Z,40.60
2018-08-25T06:44:55.497Z,40.50
2018-08-25T06:46:12.350Z,40.50
2018-08-25T06:47:29.646Z,40.60
2018-08-25T06:48:49.710Z,41.10
2018-08-25T06:50:06.970Z,40.50
2018-08-25T06:51:24.247Z,40.50
2018-08-25T06:52:41.413Z,40.60
2018-08-25T06:53:58.771Z,40.50
2018-08-25T06:55:16.522Z,40.60
2018-08-25T06:56:32.998Z,40.10
2018-08-25T06:57:49.737Z,40.50
2018-08-25T06:59:06.481Z,40.50
2018-08-25T07:00:23.745Z,41.20
2018-08-25T07:01:41.197Z,40.50
2018-08-25T07:02:57.857Z,40.60
2018-08-25T07:04:14.974Z,40.50
2018-08-25T07:05:31.955Z,40.70
2018-08-25T07:06:49.082Z,40.80
2018-08-25T07:08:05.888Z,40.70
2018-08-25T07:09:22.688Z,40.90
2018-08-25T07:10:39.439Z,40.90
2018-08-25T07:11:56.497Z,40.90
2018-08-25T07:13:14.120Z,41.00
2018-08-25T07:14:31.787Z,41.00
2018-08-25T07:15:48.829Z,41.60
2018-08-25T07:17:06.041Z,41.00
2018-08-25T07:18:23.690Z,41.00
2018-08-25T07:19:41.082Z,41.20
2018-08-25T07:20:58.721Z,41.30
2018-08-25T07:22:16.133Z,41.40
2018-08-25T07:23:33.177Z,41.30
2018-08-25T07:24:49.807Z,41.40
2018-08-25T07:26:07.231Z,41.40
2018-08-25T07:27:24.345Z,41.40
2018-08-25T07:28:41.833Z,41.40
2018-08-25T07:29:58.840Z,41.40
2018-08-25T07:31:16.074Z,41.50
2018-08-25T07:32:33.546Z,41.60
2018-08-25T07:33:50.344Z,41.40
2018-08-25T07:35:07.547Z,41.40
2018-08-25T07:36:25.738Z,41.50
2018-08-25T07:37:42.806Z,41.60
2018-08-25T07:39:00.977Z,41.90
2018-08-25T07:40:18.477Z,41.60
2018-08-25T07:41:35.277Z,41.60
2018-08-25T07:42:52.241Z,41.60
2018-08-25T07:44:09.205Z,41.10
2018-08-25T07:45:26.358Z,41.70
2018-08-25T07:46:43.071Z,41.70
2018-08-25T07:49:21.784Z,41.70
2018-08-25T07:50:38.805Z,41.70
2018-08-25T07:51:55.470Z,41.70
2018-08-25T07:53:12.021Z,42.40
2018-08-25T07:54:29.115Z,41.60
2018-08-25T07:55:45.688Z,41.60
2018-08-25T07:57:02.762Z,41.50
2018-08-25T07:58:19.460Z,41.60
2018-08-25T07:59:36.140Z,41.60
2018-08-25T08:00:52.977Z,41.70
2018-08-25T08:02:11.152Z,41.70
2018-08-25T08:03:28.644Z,41.50
2018-08-25T08:04:45.390Z,41.40
2018-08-25T08:06:02.249Z,41.50
2018-08-25T08:07:19.038Z,41.50
2018-08-25T08:08:36.089Z,41.20
2018-08-25T08:09:52.764Z,41.20
2018-08-25T08:11:09.989Z,41.20
2018-08-25T08:12:27.465Z,41.30
2018-08-25T08:13:44.253Z,42.00
2018-08-25T08:15:01.118Z,41.20
2018-08-25T08:16:18.181Z,41.30
2018-08-25T08:17:36.654Z,41.30
2018-08-25T08:18:53.757Z,41.40
2018-08-25T08:20:11.294Z,42.10
2018-08-25T08:21:28.709Z,41.20
2018-08-25T08:22:45.401Z,41.10
2018-08-25T08:24:02.470Z,41.30
2018-08-25T08:25:19.192Z,41.10
2018-08-25T08:26:36.889Z,41.30
2018-08-25T08:27:54.238Z,41.20
2018-08-25T08:29:11.509Z,41.30
2018-08-25T08:30:28.304Z,41.40
2018-08-25T08:31:45.329Z,41.30
2018-08-25T08:33:02.349Z,41.30
2018-08-25T08:34:19.353Z,41.30
2018-08-25T08:35:36.157Z,42.80
2018-08-25T08:36:52.849Z,41.10
2018-08-25T08:38:09.926Z,41.30
2018-08-25T08:39:27.407Z,41.40
2018-08-25T08:40:46.685Z,41.40
2018-08-25T08:42:03.741Z,41.40
2018-08-25T08:43:20.972Z,41.30
2018-08-25T08:44:37.724Z,41.40
2018-08-25T08:45:54.519Z,41.50
2018-08-25T08:47:12.525Z,41.40
2018-08-25T08:48:29.376Z,41.40
2018-08-25T08:49:46.817Z,41.30
2018-08-25T08:51:03.997Z,41.40
2018-08-25T08:52:20.797Z,41.50
2018-08-25T08:53:42.222Z,41.40
2018-08-25T08:54:59.682Z,41.50
2018-08-25T08:56:16.783Z,41.50
2018-08-25T08:57:34.454Z,41.60
2018-08-25T08:58:51.455Z,41.60
2018-08-25T09:00:09.693Z,41.50
2018-08-25T09:01:27.013Z,41.80
2018-08-25T09:02:43.856Z,41.70
2018-08-25T09:04:00.749Z,41.80
2018-08-25T09:05:18.517Z,42.00
2018-08-25T09:06:35.708Z,41.80
2018-08-25T09:07:54.302Z,41.70
2018-08-25T09:09:11.425Z,41.70
2018-08-25T09:10:33.329Z,41.80
2018-08-25T09:11:53.828Z,41.80
2018-08-25T09:13:10.682Z,42.40
2018-08-25T09:14:28.225Z,41.80
2018-08-25T09:15:45.194Z,42.00
2018-08-25T09:17:01.917Z,41.90
2018-08-25T09:18:19.080Z,42.50
2018-08-25T09:19:36.894Z,41.90
2018-08-25T09:20:53.507Z,41.80
2018-08-25T09:22:10.252Z,41.90
2018-08-25T09:23:27.134Z,41.90
2018-08-25T09:24:44.126Z,42.00
2018-08-25T09:26:00.794Z,42.00
2018-08-25T09:27:17.794Z,42.00
2018-08-25T09:28:34.534Z,42.00
2018-08-25T09:29:51.758Z,41.90
2018-08-25T09:31:08.510Z,42.70
2018-08-25T09:32:25.286Z,42.10
2018-08-25T09:33:42.882Z,42.10
2018-08-25T09:34:59.693Z,42.30
2018-08-25T09:36:17.462Z,42.20
2018-08-25T09:37:34.961Z,42.20
2018-08-25T09:38:53.958Z,42.00
2018-08-25T09:40:10.828Z,42.20
2018-08-25T09:41:27.678Z,42.30
2018-08-25T09:42:45.165Z,42.30
2018-08-25T09:44:01.893Z,43.00
2018-08-25T09:45:19.291Z,42.90
2018-08-25T09:46:36.139Z,42.30
2018-08-25T09:47:52.821Z,42.50
2018-08-25T09:49:09.905Z,42.40
2018-08-25T09:50:26.616Z,42.40
2018-08-25T09:51:45.536Z,42.30
2018-08-25T09:53:02.900Z,42.40
2018-08-25T09:54:19.853Z,42.50
2018-08-25T09:55:36.889Z,42.30
2018-08-25T09:56:53.876Z,42.50
2018-08-25T09:58:10.608Z,42.50
2018-08-25T09:59:28.611Z,42.50
2018-08-25T10:00:49.267Z,42.30
2018-08-25T10:02:08.396Z,42.50
2018-08-25T10:03:25.427Z,42.00
2018-08-25T10:04:42.649Z,42.70
2018-08-25T10:06:00.092Z,42.60
2018-08-25T10:07:16.795Z,42.80
2018-08-25T10:08:33.793Z,42.60
2018-08-25T10:09:50.573Z,42.70
2018-08-25T10:11:07.527Z,43.00
2018-08-25T10:12:24.371Z,42.80
2018-08-25T10:13:40.952Z,42.90
2018-08-25T10:14:57.884Z,42.90
2018-08-25T10:16:14.796Z,42.90
2018-08-25T10:17:31.824Z,43.00
2018-08-25T10:18:48.712Z,43.00
2018-08-25T10:20:05.688Z,43.00
2018-08-25T10:21:24.082Z,43.20
2018-08-25T10:22:41.588Z,43.10
2018-08-25T10:23:58.498Z,43.20
2018-08-25T10:25:15.010Z,43.20
2018-08-25T10:26:31.731Z,43.20
2018-08-25T10:27:48.527Z,43.20
2018-08-25T10:29:05.684Z,43.10
2018-08-25T10:30:23.469Z,43.20
2018-08-25T10:31:40.505Z,43.30
2018-08-25T10:32:58.221Z,43.20
2018-08-25T10:34:14.880Z,43.40
2018-08-25T10:35:32.111Z,43.80
2018-08-25T10:36:49.130Z,43.90
2018-08-25T10:38:06.648Z,43.30
2018-08-25T10:39:23.865Z,43.30
2018-08-25T10:40:40.714Z,43.40
2018-08-25T10:41:57.670Z,43.40
2018-08-25T10:43:14.584Z,43.30
2018-08-25T10:44:31.257Z,43.50
2018-08-25T10:45:47.970Z,43.30
2018-08-25T10:47:04.806Z,43.40
2018-08-25T10:48:21.820Z,43.40
2018-08-25T10:49:38.508Z,43.50
2018-08-25T10:50:55.689Z,43.60
2018-08-25T10:52:12.765Z,43.50
2018-08-25T10:53:30.073Z,43.50
2018-08-25T10:54:47.201Z,43.80
2018-08-25T10:56:04.604Z,43.60
2018-08-25T10:57:21.742Z,43.70
2018-08-25T10:58:38.757Z,43.60
2018-08-25T10:59:55.932Z,43.80
2018-08-25T11:01:12.845Z,43.70
2018-08-25T11:02:29.890Z,43.90
2018-08-25T11:03:46.530Z,43.80
2018-08-25T11:05:04.089Z,43.80
2018-08-25T11:06:21.272Z,44.00
2018-08-25T11:07:38.381Z,43.90
2018-08-25T11:08:55.460Z,43.90
2018-08-25T11:10:12.401Z,43.90
2018-08-25T11:11:29.954Z,44.00
2018-08-25T11:12:46.954Z,43.90
2018-08-25T11:14:03.952Z,43.90
2018-08-25T11:15:21.387Z,44.00
2018-08-25T11:16:38.308Z,43.90
2018-08-25T11:17:55.387Z,44.00
2018-08-25T11:19:12.435Z,44.00
2018-08-25T11:20:30.195Z,43.80
2018-08-25T11:21:50.571Z,44.00
2018-08-25T11:23:07.738Z,44.50
2018-08-25T11:24:24.696Z,44.90
2018-08-25T11:25:41.629Z,44.90
2018-08-25T11:26:58.455Z,45.10
2018-08-25T11:28:15.513Z,45.10
2018-08-25T11:29:32.226Z,45.10
2018-08-25T11:30:48.910Z,45.00
2018-08-25T11:32:05.768Z,45.10
2018-08-25T11:33:22.590Z,45.30
2018-08-25T11:34:39.443Z,44.60
2018-08-25T11:35:56.470Z,45.20
2018-08-25T11:37:13.661Z,45.10
2018-08-25T11:38:30.529Z,44.90
2018-08-25T11:39:47.904Z,45.00
2018-08-25T11:41:05.285Z,45.00
2018-08-25T11:42:22.730Z,45.00
2018-08-25T11:43:39.794Z,45.10
2018-08-25T11:44:56.657Z,45.20
2018-08-25T11:46:13.473Z,45.30
2018-08-25T11:47:30.446Z,45.30
2018-08-25T11:48:54.192Z,45.40
2018-08-25T11:50:11.571Z,45.60
2018-08-25T11:51:28.489Z,45.30
2018-08-25T11:52:45.470Z,45.50
2018-08-25T11:54:02.497Z,45.70
2018-08-25T11:55:19.111Z,45.80
2018-08-25T11:56:36.318Z,46.00
2018-08-25T11:57:53.139Z,45.50
2018-08-25T11:59:10.050Z,46.20
2018-08-25T12:00:26.988Z,46.30
2018-08-25T12:01:43.976Z,46.60
2018-08-25T12:03:03.831Z,46.90
2018-08-25T12:04:18.434Z,46.80
2018-08-25T12:05:35.461Z,46.70
2018-08-25T12:06:52.063Z,47.50
2018-08-25T12:08:08.794Z,46.60
2018-08-25T12:09:25.930Z,47.00
2018-08-25T12:10:42.770Z,47.00
2018-08-25T12:11:59.806Z,47.20
2018-08-25T12:13:16.804Z,47.20
2018-08-25T12:14:33.577Z,46.50
2018-08-25T12:15:50.629Z,47.00
2018-08-25T12:17:07.653Z,46.90
2018-08-25T12:18:24.552Z,47.20
2018-08-25T12:19:41.186Z,47.00
2018-08-25T12:20:58.151Z,47.00
2018-08-25T12:22:14.695Z,47.20
2018-08-25T12:23:31.741Z,47.10
2018-08-25T12:24:49.264Z,47.20
2018-08-25T12:26:06.444Z,47.50
2018-08-25T12:27:23.809Z,47.30
2018-08-25T12:28:40.793Z,47.50
2018-08-25T12:29:57.673Z,47.20
2018-08-25T12:31:14.686Z,47.40
2018-08-25T12:32:32.035Z,47.50
2018-08-25T12:33:49.509Z,47.40
2018-08-25T12:35:06.213Z,47.60
2018-08-25T12:36:22.836Z,47.50
2018-08-25T12:37:39.830Z,47.50
2018-08-25T12:38:56.648Z,47.70
2018-08-25T12:40:13.395Z,48.00
2018-08-25T12:41:31.144Z,47.50
2018-08-25T12:42:48.022Z,47.30
2018-08-25T12:44:04.835Z,47.50
2018-08-25T12:45:21.509Z,47.70
2018-08-25T12:46:38.581Z,47.10
2018-08-25T12:47:55.657Z,47.30
2018-08-25T12:49:12.507Z,47.10
2018-08-25T12:50:29.205Z,47.00
2018-08-25T12:51:46.014Z,47.10
2018-08-25T12:53:02.893Z,47.10
2018-08-25T12:54:19.663Z,47.00
2018-08-25T12:55:36.635Z,46.90
2018-08-25T12:56:53.381Z,47.00
2018-08-25T12:58:10.535Z,47.00
2018-08-25T12:59:27.185Z,46.90
2018-08-25T13:00:44.019Z,47.10
2018-08-25T13:02:00.831Z,47.20
2018-08-25T13:03:17.946Z,47.30
2018-08-25T13:04:34.814Z,47.70
2018-08-25T13:05:51.999Z,47.50
2018-08-25T13:07:10.020Z,47.90
2018-08-25T13:08:27.262Z,48.00
2018-08-25T13:09:44.832Z,48.20
2018-08-25T13:11:02.108Z,48.40
2018-08-25T13:12:19.271Z,48.30
2018-08-25T13:13:36.029Z,48.20
2018-08-25T13:14:53.329Z,48.60
2018-08-25T13:16:09.972Z,48.70
2018-08-25T13:17:27.170Z,47.80
2018-08-25T13:18:44.372Z,48.50
2018-08-25T13:20:01.395Z,47.90
2018-08-25T13:21:17.989Z,48.00
2018-08-25T13:22:35.200Z,47.90
2018-08-25T13:23:52.746Z,47.70
2018-08-25T13:25:10.147Z,47.80
2018-08-25T13:26:26.837Z,47.30
2018-08-25T13:27:43.722Z,47.10
2018-08-25T13:29:00.870Z,47.00
2018-08-25T13:30:17.851Z,46.70
2018-08-25T13:31:34.585Z,46.80
2018-08-25T13:32:51.149Z,46.40
2018-08-25T13:34:07.814Z,46.30
2018-08-25T13:35:24.525Z,46.50
2018-08-25T13:36:41.258Z,46.10
2018-08-25T13:37:57.947Z,45.90
2018-08-25T13:39:14.735Z,45.80
2018-08-25T13:40:31.364Z,45.70
2018-08-25T13:41:48.343Z,45.80
2018-08-25T13:43:05.017Z,45.60
2018-08-25T13:44:21.921Z,44.90
2018-08-25T13:45:38.735Z,44.80
2018-08-25T13:46:56.379Z,44.10
2018-08-25T13:48:13.416Z,44.10
2018-08-25T13:49:30.261Z,44.00
2018-08-25T13:50:47.837Z,44.30
2018-08-25T13:52:04.783Z,43.70
2018-08-25T13:53:21.761Z,43.70
2018-08-25T13:54:38.551Z,43.50
2018-08-25T13:55:56.432Z,43.40
2018-08-25T13:57:13.370Z,43.60
2018-08-25T13:58:30.103Z,43.80
2018-08-25T13:59:46.801Z,43.10
2018-08-25T14:01:03.535Z,43.50
2018-08-25T14:02:20.310Z,43.00
2018-08-25T14:03:37.195Z,42.80
2018-08-25T14:04:54.701Z,42.70
2018-08-25T14:06:12.308Z,42.40
2018-08-25T14:07:29.867Z,42.50
2018-08-25T14:08:47.458Z,42.40
2018-08-25T14:10:04.496Z,42.50
2018-08-25T14:11:21.279Z,42.60
2018-08-25T14:12:37.966Z,42.40
2018-08-25T14:13:54.659Z,42.30
2018-08-25T14:15:11.480Z,42.80
2018-08-25T14:16:28.470Z,42.80
2018-08-25T14:17:45.346Z,42.80
2018-08-25T14:19:02.197Z,42.50
2018-08-25T14:20:18.973Z,42.60
2018-08-25T14:21:35.720Z,43.00
2018-08-25T14:22:52.725Z,42.90
2018-08-25T14:24:09.590Z,42.80
2018-08-25T14:25:27.005Z,42.30
2018-08-25T14:26:43.729Z,42.00
2018-08-25T14:28:01.074Z,41.70
2018-08-25T14:29:18.479Z,41.60
2018-08-25T14:30:36.162Z,41.60
2018-08-25T14:31:52.984Z,41.40
2018-08-25T14:33:10.438Z,42.00
2018-08-25T14:34:27.310Z,42.20
2018-08-25T14:35:45.014Z,41.90
2018-08-25T14:37:02.073Z,41.30
2018-08-25T14:38:19.550Z,41.00
2018-08-25T14:39:36.529Z,40.50
2018-08-25T14:40:53.246Z,40.10
2018-08-25T14:42:10.238Z,40.30
2018-08-25T14:43:26.952Z,40.10
2018-08-25T14:44:43.602Z,40.10
2018-08-25T14:46:01.218Z,40.10
2018-08-25T14:47:18.333Z,40.10
2018-08-25T14:48:36.110Z,40.10
2018-08-25T14:49:55.261Z,40.10
2018-08-25T14:51:12.152Z,40.80
2018-08-25T14:52:29.198Z,40.50
2018-08-25T14:53:46.964Z,40.30
2018-08-25T14:55:03.721Z,40.00
2018-08-25T14:56:20.608Z,40.00
2018-08-25T14:57:37.556Z,39.90
2018-08-25T14:58:54.338Z,40.00
2018-08-25T15:00:11.301Z,39.90
2018-08-25T15:01:27.986Z,40.90
2018-08-25T15:02:44.966Z,40.70
2018-08-25T15:04:02.418Z,40.50
2018-08-25T15:05:19.558Z,40.80
2018-08-25T15:06:36.273Z,40.00
2018-08-25T15:07:53.307Z,40.80
2018-08-25T15:09:12.476Z,40.30
2018-08-25T15:10:35.564Z,40.10
2018-08-25T15:11:54.717Z,40.10
2018-08-25T15:13:11.707Z,40.10
2018-08-25T15:14:28.530Z,40.10
2018-08-25T15:15:46.229Z,40.10
2018-08-25T15:17:03.890Z,40.10
2018-08-25T15:18:20.858Z,40.00
2018-08-25T15:19:38.555Z,40.00
2018-08-25T15:20:56.080Z,39.80
2018-08-25T15:22:13.016Z,40.40
2018-08-25T15:23:29.851Z,40.60
2018-08-25T15:24:47.093Z,40.80
2018-08-25T15:26:04.989Z,40.80
2018-08-25T15:27:22.441Z,40.80
2018-08-25T15:28:39.226Z,40.90
2018-08-25T15:29:56.093Z,41.20
2018-08-25T15:31:13.304Z,41.20
2018-08-25T15:32:30.827Z,41.30
2018-08-25T15:33:48.299Z,41.30
2018-08-25T15:35:05.714Z,41.20
2018-08-25T15:36:23.331Z,41.20
2018-08-25T15:37:40.193Z,41.70
2018-08-25T15:38:57.868Z,41.90
2018-08-25T15:40:15.110Z,42.10
2018-08-25T15:41:32.157Z,42.80
2018-08-25T15:42:49.151Z,42.30
2018-08-25T15:44:06.365Z,42.30
2018-08-25T15:45:23.832Z,42.30
2018-08-25T15:46:40.958Z,42.30
2018-08-25T15:48:01.315Z,42.50
2018-08-25T15:49:18.831Z,42.40
2018-08-25T15:50:35.634Z,42.50
2018-08-25T15:51:53.026Z,43.20
2018-08-25T15:53:09.761Z,42.70
2018-08-25T15:54:26.491Z,42.60
2018-08-25T15:55:43.296Z,42.70
2018-08-25T15:57:00.098Z,42.80
2018-08-25T15:58:17.064Z,42.80
2018-08-25T15:59:33.939Z,42.80
2018-08-25T16:00:51.132Z,43.00
2018-08-25T16:02:09.006Z,43.10
2018-08-25T16:03:26.327Z,43.90
2018-08-25T16:04:43.795Z,42.80
2018-08-25T16:06:00.761Z,43.50
2018-08-25T16:07:17.843Z,43.60
2018-08-25T16:08:35.324Z,43.60
2018-08-25T16:09:56.861Z,43.60
2018-08-25T16:11:14.701Z,43.60
2018-08-25T16:12:32.423Z,43.60
2018-08-25T16:13:49.491Z,43.70
2018-08-25T16:15:07.867Z,43.60
2018-08-25T16:16:25.003Z,43.50
2018-08-25T16:17:42.081Z,43.60
2018-08-25T16:18:58.758Z,43.40
2018-08-25T16:20:15.859Z,43.60
2018-08-25T16:21:32.705Z,43.60
2018-08-25T16:22:49.768Z,43.70
2018-08-25T16:24:07.191Z,44.50
2018-08-25T16:25:24.005Z,43.90
2018-08-25T16:26:40.984Z,43.80
2018-08-25T16:27:57.581Z,44.10
2018-08-25T16:29:14.459Z,44.30
2018-08-25T16:30:31.391Z,44.30
2018-08-25T16:31:48.422Z,44.40
2018-08-25T16:33:05.923Z,44.50
2018-08-25T16:34:22.827Z,44.60
2018-08-25T16:35:39.754Z,44.50
2018-08-25T16:36:56.788Z,45.00
2018-08-25T16:38:14.140Z,45.10
2018-08-25T16:39:31.080Z,45.10
2018-08-25T16:40:47.920Z,45.00
2018-08-25T16:42:04.758Z,44.90